createdAt,value
2023-05-17T00:03:19.650Z,97254.13
2023-05-17T00:08:13.084Z,97264.81
2023-05-17T00:13:07.859Z,97257.03
2023-05-17T00:18:01.235Z,97257.03
2023-05-17T00:22:54.691Z,97264.59
2023-05-17T00:27:48.036Z,97271.75
2023-05-17T00:32:42.711Z,97275.06
2023-05-17T00:37:36.162Z,97270.59
2023-05-17T00:42:29.486Z,97267.75
2023-05-17T00:47:22.934Z,97267.09
2023-05-17T00:52:17.879Z,97275.72
2023-05-17T00:57:12.035Z,97281.97
2023-05-17T01:02:06.128Z,97281.41
2023-05-17T01:07:00.206Z,97283.50
2023-05-17T01:12:09.096Z,97278.03
2023-05-17T01:17:07.919Z,97284.22
2023-05-17T01:22:33.026Z,97285.94
2023-05-17T01:27:29.582Z,97288.66
2023-05-17T01:32:23.589Z,97296.72
2023-05-17T01:37:17.077Z,97294.53
2023-05-17T01:42:24.615Z,97292.97
2023-05-17T01:47:30.680Z,97307.44
2023-05-17T01:52:36.824Z,97304.59
2023-05-17T01:57:36.514Z,97303.03
2023-05-17T02:02:31.849Z,97307.75
2023-05-17T02:07:25.228Z,97316.25
2023-05-17T02:12:18.591Z,97307.06
2023-05-17T02:17:12.034Z,97314.78
2023-05-17T02:22:06.816Z,97321.53
2023-05-17T02:27:00.107Z,97317.59
2023-05-17T02:31:53.444Z,97316.25
2023-05-17T02:36:47.003Z,97315.41
2023-05-17T02:41:41.736Z,97305.94
2023-05-17T02:46:37.630Z,97301.66
2023-05-17T02:51:32.066Z,97315.19
2023-05-17T02:56:25.826Z,97304.69
2023-05-17T03:01:20.501Z,97308.03
2023-05-17T03:06:13.854Z,97308.28
2023-05-17T03:11:07.404Z,97311.31
2023-05-17T03:16:00.802Z,97329.66
2023-05-17T03:20:55.474Z,97328.78
2023-05-17T03:25:48.844Z,97323.47
2023-05-17T03:30:42.394Z,97333.28
2023-05-17T03:35:35.738Z,97338.50
2023-05-17T03:40:30.535Z,97339.06
2023-05-17T03:45:24.095Z,97354.06
2023-05-17T03:50:17.492Z,97368.75
2023-05-17T03:55:11.403Z,97360.22
2023-05-17T04:00:10.587Z,97356.84
2023-05-17T04:05:04.239Z,97369.28
2023-05-17T04:10:00.019Z,97376.44
2023-05-17T04:14:53.340Z,97377.22
2023-05-17T04:19:48.212Z,97383.22
2023-05-17T04:24:41.582Z,97378.44
2023-05-17T04:29:34.945Z,97382.91
2023-05-17T04:34:28.271Z,97384.94
2023-05-17T04:39:23.301Z,97382.41
2023-05-17T04:44:16.708Z,97383.28
2023-05-17T04:49:10.064Z,97387.63
2023-05-17T04:54:06.951Z,97390.31
2023-05-17T04:59:02.740Z,97398.09
2023-05-17T05:03:56.039Z,97409.94
2023-05-17T05:08:49.422Z,97408.75
2023-05-17T05:13:42.797Z,97417.69
2023-05-17T05:18:37.680Z,97419.47
2023-05-17T05:23:31.267Z,97422.09
2023-05-17T05:28:24.616Z,97432.69
2023-05-17T05:33:17.971Z,97432.03
2023-05-17T05:38:12.939Z,97438.00
2023-05-17T05:43:06.270Z,97430.31
2023-05-17T05:47:59.759Z,97439.44
2023-05-17T05:52:56.266Z,97430.09
2023-05-17T05:57:58.553Z,97441.50
2023-05-17T06:02:53.603Z,97450.84
2023-05-17T06:07:47.096Z,97456.09
2023-05-17T06:12:40.462Z,97456.97
2023-05-17T06:17:35.161Z,97460.56
2023-05-17T06:22:28.488Z,97455.09
2023-05-17T06:27:21.771Z,97472.59
2023-05-17T06:32:15.165Z,97475.97
2023-05-17T06:37:09.920Z,97482.03
2023-05-17T06:42:03.348Z,97479.34
2023-05-17T06:46:57.001Z,97474.66
2023-05-17T06:51:50.506Z,97483.19
2023-05-17T06:56:45.504Z,97470.03
2023-05-17T07:01:39.747Z,97478.50
2023-05-17T07:06:33.051Z,97482.25
2023-05-17T07:11:26.538Z,97484.22
2023-05-17T07:16:21.221Z,97489.25
2023-05-17T07:21:14.545Z,97482.66
2023-05-17T07:26:07.925Z,97484.34
2023-05-17T07:31:01.701Z,97496.13
2023-05-17T07:35:56.416Z,97490.25
2023-05-17T07:40:49.759Z,97483.81
2023-05-17T07:45:45.777Z,97494.88
2023-05-17T07:50:39.211Z,97491.50
2023-05-17T07:55:33.887Z,97483.63
2023-05-17T08:00:27.953Z,97496.47
2023-05-17T08:05:21.340Z,97492.59
2023-05-17T08:10:14.716Z,97498.31
2023-05-17T08:15:10.458Z,97498.00
2023-05-17T08:20:06.199Z,97488.44
2023-05-17T08:24:59.746Z,97499.00
2023-05-17T08:29:54.969Z,97506.31
2023-05-17T08:34:49.653Z,97511.25
2023-05-17T08:39:42.998Z,97511.91
2023-05-17T08:44:38.701Z,97513.94
2023-05-17T08:49:34.774Z,97510.91
2023-05-17T08:54:30.124Z,97513.38
2023-05-17T08:59:24.310Z,97508.03
2023-05-17T09:04:18.386Z,97515.53
2023-05-17T09:09:12.156Z,97508.59
2023-05-17T09:14:08.696Z,97491.63
2023-05-17T09:19:03.799Z,97500.88
2023-05-17T09:24:06.470Z,97506.72
2023-05-17T09:29:01.514Z,97495.34
2023-05-17T09:33:56.342Z,97500.47
2023-05-17T09:38:58.682Z,97513.72
2023-05-17T09:43:52.456Z,97510.94
2023-05-17T09:48:46.885Z,97515.06
2023-05-17T09:53:42.455Z,97513.50
2023-05-17T09:58:38.887Z,97493.28
2023-05-17T10:03:34.417Z,97518.06
2023-05-17T10:08:31.001Z,97504.69
2023-05-17T10:13:30.431Z,97507.31
2023-05-17T10:18:26.501Z,97507.94
2023-05-17T10:23:20.999Z,97493.91
2023-05-17T10:28:18.181Z,97489.13
2023-05-17T10:33:14.976Z,97490.81
2023-05-17T10:38:08.371Z,97500.22
2023-05-17T10:43:02.843Z,97498.34
2023-05-17T10:47:58.918Z,97495.09
2023-05-17T10:52:59.247Z,97504.81
2023-05-17T10:58:19.678Z,97480.16
2023-05-17T11:03:19.408Z,97487.91
2023-05-17T11:08:20.616Z,97487.44
2023-05-17T11:13:27.237Z,97486.34
2023-05-17T11:18:30.374Z,97484.75
2023-05-17T11:23:29.772Z,97485.66
2023-05-17T11:28:23.683Z,97473.75
2023-05-17T11:33:32.418Z,97475.47
2023-05-17T11:38:32.593Z,97488.94
2023-05-17T11:43:31.045Z,97462.00
2023-05-17T11:48:27.047Z,97457.41
2023-05-17T11:53:21.657Z,97468.88
2023-05-17T11:58:18.719Z,97456.84
2023-05-17T12:03:20.027Z,97448.78
2023-05-17T12:08:14.237Z,97461.84
2023-05-17T12:13:08.631Z,97446.00
2023-05-17T12:18:03.690Z,97449.00
2023-05-17T12:22:58.030Z,97447.72
2023-05-17T12:27:51.623Z,97439.13
2023-05-17T12:32:46.778Z,97437.81
2023-05-17T12:37:41.898Z,97436.34
2023-05-17T12:42:35.551Z,97426.09
2023-05-17T12:47:33.453Z,97431.06
2023-05-17T12:52:26.852Z,97449.47
2023-05-17T12:57:21.561Z,97431.88
2023-05-17T13:02:16.866Z,97414.72
2023-05-17T13:07:10.323Z,97417.16
2023-05-17T13:12:08.957Z,97424.03
2023-05-17T13:17:04.760Z,97421.66
2023-05-17T13:21:58.410Z,97399.53
2023-05-17T13:26:51.831Z,97404.69
2023-05-17T13:31:45.164Z,97428.25
2023-05-17T13:36:39.865Z,97426.22
2023-05-17T13:41:33.235Z,97405.41
2023-05-17T13:46:27.110Z,97399.91
2023-05-17T13:51:20.467Z,97419.47
2023-05-17T13:56:15.189Z,97421.22
2023-05-17T14:01:08.541Z,97425.97
2023-05-17T14:06:01.920Z,97423.66
2023-05-17T14:10:55.378Z,97414.47
2023-05-17T14:15:50.233Z,97408.97
2023-05-17T14:20:43.697Z,97398.03
2023-05-17T14:25:37.089Z,97393.88
2023-05-17T14:30:30.578Z,97402.94
2023-05-17T14:35:25.451Z,97387.34
2023-05-17T14:40:18.898Z,97389.91
2023-05-17T14:45:12.799Z,97397.34
2023-05-17T14:50:07.441Z,97402.47
2023-05-17T14:55:02.234Z,97409.44
2023-05-17T14:59:56.334Z,97409.22
2023-05-17T15:04:49.888Z,97388.22
2023-05-17T15:09:44.334Z,97403.22
2023-05-17T15:14:39.843Z,97409.06
2023-05-17T15:19:33.554Z,97412.75
2023-05-17T15:24:27.511Z,97403.25
2023-05-17T15:29:20.834Z,97415.19
2023-05-17T15:34:15.684Z,97415.91
2023-05-17T15:39:09.054Z,97416.53
2023-05-17T15:44:02.422Z,97413.13
2023-05-17T15:48:57.081Z,97412.16
2023-05-17T15:53:51.862Z,97407.09
2023-05-17T15:58:45.159Z,97423.47
2023-05-17T16:03:38.505Z,97405.97
2023-05-17T16:08:32.098Z,97414.88
2023-05-17T16:13:26.923Z,97421.19
2023-05-17T16:18:20.257Z,97421.81
2023-05-17T16:23:13.768Z,97431.06
2023-05-17T16:28:07.083Z,97432.19
2023-05-17T16:33:01.767Z,97435.75
2023-05-17T16:37:55.137Z,97422.56
2023-05-17T16:42:48.471Z,97424.09
2023-05-17T16:47:41.989Z,97439.63
2023-05-17T16:52:36.757Z,97437.59
2023-05-17T16:57:31.405Z,97435.84
2023-05-17T17:02:26.004Z,97440.66
2023-05-17T17:07:19.508Z,97429.16
2023-05-17T17:12:24.206Z,97435.19
2023-05-17T17:17:18.606Z,97432.06
2023-05-17T17:22:14.147Z,97439.50
2023-05-17T17:27:07.620Z,97446.22
2023-05-17T17:32:02.431Z,97439.88
2023-05-17T17:36:56.073Z,97444.66
2023-05-17T17:41:49.434Z,97442.50
2023-05-17T17:46:42.839Z,97442.19
2023-05-17T17:51:37.567Z,97435.00
2023-05-17T17:56:31.445Z,97449.97
2023-05-17T18:01:25.598Z,97449.84
2023-05-17T18:06:19.582Z,97462.66
2023-05-17T18:11:14.415Z,97457.63
2023-05-17T18:16:08.024Z,97455.13
2023-05-17T18:21:01.587Z,97462.69
2023-05-17T18:25:54.939Z,97465.66
2023-05-17T18:30:49.661Z,97464.72
2023-05-17T18:35:44.130Z,97468.78
2023-05-17T18:40:37.417Z,97465.16
2023-05-17T18:45:31.834Z,97475.91
2023-05-17T18:50:26.627Z,97470.91
2023-05-17T18:55:20.157Z,97474.38
2023-05-17T19:00:15.360Z,97480.34
2023-05-17T19:05:09.592Z,97474.56
2023-05-17T19:10:05.056Z,97483.31
2023-05-17T19:14:58.401Z,97492.34
2023-05-17T19:19:51.780Z,97496.22
2023-05-17T19:24:45.193Z,97505.00
2023-05-17T19:29:39.891Z,97518.88
2023-05-17T19:34:33.342Z,97515.34
2023-05-17T19:39:26.725Z,97519.97
2023-05-17T19:44:20.047Z,97525.47
2023-05-17T19:49:14.773Z,97526.72
2023-05-17T19:54:08.244Z,97529.94
2023-05-17T19:59:03.832Z,97525.94
2023-05-17T20:03:57.317Z,97534.16
2023-05-17T20:08:52.181Z,97534.38
2023-05-17T20:13:45.704Z,97540.06
2023-05-17T20:18:42.385Z,97533.97
2023-05-17T20:23:36.247Z,97541.53
2023-05-17T20:28:31.161Z,97541.72
2023-05-17T20:33:26.765Z,97531.69
2023-05-17T20:38:20.391Z,97531.09
2023-05-17T20:43:14.551Z,97535.38
2023-05-17T20:48:09.457Z,97536.53
2023-05-17T20:53:02.837Z,97532.13
2023-05-17T20:57:56.957Z,97541.16
2023-05-17T21:02:50.604Z,97527.91
2023-05-17T21:07:46.792Z,97534.84
2023-05-17T21:12:40.202Z,97517.19
2023-05-17T21:17:33.574Z,97511.91
2023-05-17T21:22:26.937Z,97506.63
2023-05-17T21:27:21.685Z,97512.06
2023-05-17T21:37:32.381Z,97499.59
2023-05-17T21:42:27.077Z,97501.19
2023-05-17T21:47:20.340Z,97510.50
2023-05-17T21:52:13.676Z,97502.22
2023-05-17T21:57:07.233Z,97506.22
2023-05-17T22:02:01.969Z,97512.94
2023-05-17T22:06:57.104Z,97506.63
2023-05-17T22:11:50.520Z,97509.50
2023-05-17T22:17:51.657Z,97507.78
2023-05-17T22:22:46.059Z,97504.34
2023-05-17T22:27:39.373Z,97502.53
2023-05-17T22:32:34.082Z,97490.88
2023-05-17T22:37:27.449Z,97482.81
2023-05-17T22:42:20.940Z,97472.84
2023-05-17T22:47:15.293Z,97462.34
2023-05-17T22:52:11.176Z,97458.44
2023-05-17T22:57:06.484Z,97455.19
2023-05-17T23:02:00.029Z,97455.81
2023-05-17T23:07:02.039Z,97444.69
2023-05-17T23:11:56.865Z,97455.28
2023-05-17T23:16:50.601Z,97437.25
2023-05-17T23:21:46.432Z,97434.94
2023-05-17T23:26:39.762Z,97431.81
2023-05-17T23:31:36.494Z,97429.06
2023-05-17T23:36:29.900Z,97428.25
2023-05-17T23:41:25.358Z,97435.91
2023-05-17T23:46:19.721Z,97435.47
2023-05-17T23:51:14.668Z,97443.03
2023-05-17T23:56:08.762Z,97445.44
